createdAt,value
2019-02-20T00:01:20.469Z,1.63
2019-02-20T00:04:24.607Z,1.73
2019-02-20T00:07:28.733Z,1.47
2019-02-20T00:10:32.897Z,1.70
2019-02-20T00:13:37.045Z,1.03
2019-02-20T00:16:41.172Z,1.13
2019-02-20T00:19:45.316Z,0.80
2019-02-20T00:22:49.441Z,4.43
2019-02-20T00:25:53.581Z,1.47
2019-02-20T00:28:57.710Z,1.90
2019-02-20T00:32:01.856Z,0.77
2019-02-20T00:35:06.652Z,1.13
2019-02-20T00:38:10.808Z,1.37
2019-02-20T00:41:14.945Z,1.33
2019-02-20T00:44:29.200Z,1.10
2019-02-20T00:47:37.414Z,1.03
2019-02-20T00:50:46.107Z,1.23
2019-02-20T00:53:54.292Z,0.93
2019-02-20T00:56:58.442Z,1.20
2019-02-20T01:00:02.897Z,2.03
2019-02-20T01:03:07.042Z,0.97
2019-02-20T01:06:11.166Z,0.83
2019-02-20T01:09:15.309Z,1.10
2019-02-20T01:12:19.464Z,0.97
2019-02-20T01:15:23.653Z,1.63
2019-02-20T01:18:27.803Z,1.60
2019-02-20T01:21:31.921Z,0.90
2019-02-20T01:24:36.065Z,1.00
2019-02-20T01:27:40.203Z,1.40
2019-02-20T01:30:44.408Z,0.73
2019-02-20T01:33:48.553Z,2.07
2019-02-20T01:36:52.704Z,1.17
2019-02-20T01:39:56.829Z,0.77
2019-02-20T01:43:00.948Z,1.03
2019-02-20T01:46:05.100Z,1.00
2019-02-20T01:49:09.240Z,1.23
2019-02-20T01:52:13.368Z,0.97
2019-02-20T01:55:17.557Z,1.00
2019-02-20T01:58:21.682Z,1.63
2019-02-20T02:01:25.824Z,1.20
2019-02-20T02:04:29.944Z,0.87
2019-02-20T02:07:34.098Z,1.90
2019-02-20T02:10:38.237Z,0.80
2019-02-20T02:13:42.364Z,1.13
2019-02-20T02:16:46.504Z,0.77
2019-02-20T02:19:50.624Z,0.67
2019-02-20T02:22:54.771Z,0.90
2019-02-20T02:25:58.945Z,1.17
2019-02-20T02:29:03.131Z,1.20
2019-02-20T02:32:07.275Z,0.90
2019-02-20T02:35:11.398Z,0.60
2019-02-20T02:38:15.541Z,0.50
2019-02-20T02:41:19.670Z,0.80
2019-02-20T02:44:23.814Z,0.87
2019-02-20T02:47:27.957Z,1.13
2019-02-20T02:50:32.081Z,1.37
2019-02-20T02:53:36.227Z,2.10
2019-02-20T02:56:40.348Z,0.40
2019-02-20T02:59:44.497Z,0.47
2019-02-20T03:02:48.654Z,1.13
2019-02-20T03:05:52.792Z,0.63
2019-02-20T03:08:56.919Z,0.73
2019-02-20T03:12:01.053Z,0.97
2019-02-20T03:15:07.832Z,0.80
2019-02-20T03:18:11.956Z,1.03
2019-02-20T03:21:16.103Z,0.70
2019-02-20T03:24:20.239Z,2.33
2019-02-20T03:27:24.361Z,1.03
2019-02-20T03:30:28.521Z,1.13
2019-02-20T03:33:32.633Z,1.00
2019-02-20T03:36:36.775Z,0.70
2019-02-20T03:39:40.921Z,0.40
2019-02-20T03:42:45.217Z,0.60
2019-02-20T03:45:49.361Z,0.83
2019-02-20T03:48:53.486Z,1.23
2019-02-20T03:51:57.631Z,0.63
2019-02-20T03:55:01.786Z,1.27
2019-02-20T03:58:05.909Z,0.80
2019-02-20T04:01:10.240Z,0.60
2019-02-20T04:04:14.344Z,1.07
2019-02-20T04:07:18.491Z,0.50
2019-02-20T04:10:22.647Z,1.90
2019-02-20T04:13:26.754Z,1.20
2019-02-20T04:16:30.931Z,0.80
2019-02-20T04:19:35.117Z,0.90
2019-02-20T04:22:39.268Z,0.50
2019-02-20T04:25:43.400Z,0.97
2019-02-20T04:28:47.550Z,1.03
2019-02-20T04:31:51.663Z,1.27
2019-02-20T04:34:55.808Z,0.50
2019-02-20T04:37:59.957Z,0.40
2019-02-20T04:41:04.085Z,0.53
2019-02-20T04:44:08.227Z,0.80
2019-02-20T04:47:12.350Z,0.73
2019-02-20T04:50:16.493Z,1.07
2019-02-20T04:53:20.638Z,1.53
2019-02-20T04:56:24.774Z,0.53
2019-02-20T04:59:28.909Z,0.70
2019-02-20T05:02:33.029Z,0.43
2019-02-20T05:05:37.173Z,0.83
2019-02-20T05:08:41.329Z,0.90
2019-02-20T05:11:45.454Z,0.50
2019-02-20T05:14:49.598Z,1.40
2019-02-20T05:17:53.722Z,0.27
2019-02-20T05:20:57.864Z,1.70
2019-02-20T05:24:01.987Z,0.80
2019-02-20T05:27:06.134Z,0.30
2019-02-20T05:30:10.285Z,0.40
2019-02-20T05:33:14.410Z,0.60
2019-02-20T05:36:18.557Z,0.40
2019-02-20T05:39:22.681Z,0.23
2019-02-20T05:42:26.829Z,0.70
2019-02-20T05:45:30.957Z,0.50
2019-02-20T05:48:35.110Z,0.60
2019-02-20T05:51:39.252Z,0.40
2019-02-20T05:54:43.373Z,0.37
2019-02-20T05:57:47.524Z,0.87
2019-02-20T06:00:51.642Z,0.40
2019-02-20T06:03:55.791Z,0.40
2019-02-20T06:06:59.964Z,0.30
2019-02-20T06:10:05.327Z,0.70
2019-02-20T06:13:09.470Z,0.30
2019-02-20T06:16:13.595Z,0.60
2019-02-20T06:19:17.737Z,1.13
2019-02-20T06:22:21.862Z,0.30
2019-02-20T06:25:26.007Z,2.27
2019-02-20T06:28:30.161Z,0.63
2019-02-20T06:31:34.281Z,0.27
2019-02-20T06:34:38.433Z,1.10
2019-02-20T06:37:42.549Z,0.43
2019-02-20T06:40:46.693Z,0.43
2019-02-20T06:43:50.824Z,0.60
2019-02-20T06:46:54.961Z,0.50
2019-02-20T06:50:01.063Z,0.30
2019-02-20T06:53:04.941Z,0.63
2019-02-20T06:56:09.076Z,0.40
2019-02-20T06:59:13.201Z,0.40
2019-02-20T07:02:17.517Z,0.30
2019-02-20T07:05:29.987Z,0.93
2019-02-20T07:08:52.258Z,0.43
2019-02-20T07:12:19.294Z,0.70
2019-02-20T07:15:49.151Z,0.90
2019-02-20T07:18:56.450Z,0.60
2019-02-20T07:22:15.851Z,0.87
2019-02-20T07:25:38.177Z,0.57
2019-02-20T07:29:21.989Z,1.23
2019-02-20T07:32:26.132Z,0.90
2019-02-20T07:35:30.258Z,0.23
2019-02-20T07:38:34.409Z,1.00
2019-02-20T07:41:38.531Z,0.43
2019-02-20T07:44:42.680Z,0.53
2019-02-20T07:47:46.825Z,0.63
2019-02-20T07:50:50.945Z,0.40
2019-02-20T07:53:55.090Z,0.93
2019-02-20T07:56:59.213Z,0.57
2019-02-20T08:00:04.496Z,0.40
2019-02-20T08:03:08.641Z,0.73
2019-02-20T08:06:12.865Z,2.07
2019-02-20T08:09:16.989Z,0.50
2019-02-20T08:12:21.125Z,0.60
2019-02-20T08:15:25.278Z,0.63
2019-02-20T08:18:29.432Z,0.70
2019-02-20T08:21:33.553Z,1.00
2019-02-20T08:24:37.698Z,0.40
2019-02-20T08:27:41.820Z,0.30
2019-02-20T08:30:45.964Z,0.40
2019-02-20T08:33:50.101Z,0.70
2019-02-20T08:36:54.245Z,0.40
2019-02-20T08:39:58.361Z,0.70
2019-02-20T08:43:02.505Z,0.40
2019-02-20T08:46:06.654Z,4.73
2019-02-20T08:49:10.778Z,5.37
2019-02-20T08:52:14.921Z,6.20
2019-02-20T08:55:19.189Z,13.27
2019-02-20T08:58:23.374Z,19.60
2019-02-20T09:01:27.529Z,16.60
2019-02-20T09:04:31.655Z,16.40
2019-02-20T09:07:35.801Z,17.60
2019-02-20T09:10:39.949Z,17.47
2019-02-20T09:13:44.093Z,9.23
2019-02-20T09:16:48.248Z,15.20
2019-02-20T09:19:52.370Z,13.63
2019-02-20T09:22:56.521Z,13.90
2019-02-20T09:26:00.651Z,22.43
2019-02-20T09:29:04.798Z,17.87
2019-02-20T09:32:08.946Z,18.33
2019-02-20T09:35:13.346Z,11.60
2019-02-20T09:38:17.498Z,17.53
2019-02-20T09:41:21.626Z,11.33
2019-02-20T09:44:25.783Z,17.63
2019-02-20T09:47:29.932Z,15.80
2019-02-20T09:50:34.052Z,9.87
2019-02-20T09:53:38.201Z,8.83
2019-02-20T09:56:42.337Z,16.97
2019-02-20T09:59:46.476Z,7.23
2019-02-20T10:02:50.634Z,10.80
2019-02-20T10:05:54.752Z,9.70
2019-02-20T10:08:58.901Z,10.43
2019-02-20T10:12:03.097Z,14.10
2019-02-20T10:15:15.615Z,13.40
2019-02-20T10:18:19.778Z,15.55
2019-02-20T10:21:23.904Z,9.60
2019-02-20T10:24:28.056Z,8.80
2019-02-20T10:27:32.183Z,11.63
2019-02-20T10:30:36.328Z,7.57
2019-02-20T10:33:40.642Z,11.13
2019-02-20T10:36:46.354Z,9.50
2019-02-20T10:39:50.470Z,7.73
2019-02-20T10:42:54.614Z,6.57
2019-02-20T10:45:58.758Z,5.30
2019-02-20T10:49:02.882Z,8.63
2019-02-20T10:52:07.036Z,6.17
2019-02-20T10:55:11.331Z,8.70
2019-02-20T10:58:15.464Z,3.87
2019-02-20T11:01:19.584Z,8.50
2019-02-20T11:04:23.732Z,7.00
2019-02-20T11:07:27.961Z,7.00
2019-02-20T11:10:32.080Z,8.27
2019-02-20T11:13:36.301Z,5.17
2019-02-20T11:16:40.422Z,6.13
2019-02-20T11:19:44.610Z,8.73
2019-02-20T11:22:48.699Z,4.43
2019-02-20T11:25:52.834Z,5.80
2019-02-20T11:28:56.976Z,6.10
2019-02-20T11:32:01.095Z,5.20
2019-02-20T11:35:06.651Z,4.20
2019-02-20T11:38:10.770Z,3.70
2019-02-20T11:41:14.912Z,6.45
2019-02-20T11:44:20.975Z,5.70
2019-02-20T11:47:24.887Z,3.97
2019-02-20T11:50:29.024Z,4.93
2019-02-20T11:53:37.224Z,6.73
2019-02-20T11:56:38.995Z,5.00
2019-02-20T11:59:43.147Z,7.17
2019-02-20T12:02:47.267Z,4.87
2019-02-20T12:05:51.409Z,3.47
2019-02-20T12:08:55.724Z,6.28
2019-02-20T12:11:59.961Z,6.83
2019-02-20T12:15:05.140Z,5.27
2019-02-20T12:18:17.022Z,6.37
2019-02-20T12:21:15.128Z,5.13
2019-02-20T12:24:19.255Z,3.57
2019-02-20T12:27:23.402Z,7.93
2019-02-20T12:30:27.528Z,4.07
2019-02-20T12:33:31.675Z,4.73
2019-02-20T12:36:35.793Z,5.07
2019-02-20T12:39:40.845Z,6.07
2019-02-20T12:42:44.989Z,6.03
2019-02-20T12:45:49.127Z,6.25
2019-02-20T12:48:53.252Z,7.07
2019-02-20T12:51:57.377Z,4.13
2019-02-20T12:55:01.526Z,3.37
2019-02-20T12:58:05.961Z,5.57
2019-02-20T13:01:10.095Z,4.67
2019-02-20T13:04:14.239Z,4.03
2019-02-20T13:07:18.361Z,4.60
2019-02-20T13:10:22.553Z,4.43
2019-02-20T13:13:26.677Z,3.23
2019-02-20T13:16:30.821Z,6.03
2019-02-20T13:19:34.969Z,3.50
2019-02-20T13:22:39.430Z,2.50
2019-02-20T13:25:43.577Z,3.53
2019-02-20T13:28:47.702Z,2.60
2019-02-20T13:31:51.849Z,2.90
2019-02-20T13:34:55.984Z,2.93
2019-02-20T13:38:00.130Z,4.13
2019-02-20T13:41:04.276Z,6.00
2019-02-20T13:44:08.401Z,2.63
2019-02-20T13:47:12.549Z,3.20
2019-02-20T13:50:16.841Z,3.80
2019-02-20T13:53:21.162Z,4.57
2019-02-20T13:56:25.290Z,2.97
2019-02-20T13:59:29.435Z,16.10
2019-02-20T14:02:33.757Z,11.33
2019-02-20T14:05:37.887Z,16.87
2019-02-20T14:08:42.039Z,14.93
2019-02-20T14:11:46.348Z,12.87
2019-02-20T14:14:50.494Z,18.53
2019-02-20T14:17:54.628Z,15.90
2019-02-20T14:20:59.054Z,18.40
2019-02-20T14:24:03.202Z,13.27
2019-02-20T14:27:10.711Z,13.23
2019-02-20T14:30:13.247Z,17.93
2019-02-20T14:33:17.376Z,14.23
2019-02-20T14:36:21.521Z,10.73
2019-02-20T14:39:25.964Z,18.90
2019-02-20T14:42:30.094Z,16.83
2019-02-20T14:45:34.242Z,13.70
2019-02-20T14:48:38.650Z,13.70
2019-02-20T14:51:42.801Z,15.57
2019-02-20T14:54:46.929Z,13.30
2019-02-20T14:57:51.371Z,15.00
2019-02-20T15:00:55.513Z,11.40
2019-02-20T15:03:59.641Z,11.73
2019-02-20T15:07:04.070Z,10.87
2019-02-20T15:10:09.542Z,11.50
2019-02-20T15:13:13.705Z,9.20
2019-02-20T15:16:18.133Z,13.80
2019-02-20T15:19:22.252Z,9.67
2019-02-20T15:22:26.400Z,9.30
2019-02-20T15:25:30.796Z,9.30
2019-02-20T15:28:34.942Z,10.03
2019-02-20T15:31:39.070Z,10.13
2019-02-20T15:34:43.488Z,8.07
2019-02-20T15:37:47.633Z,8.93
2019-02-20T15:40:51.756Z,5.27
2019-02-20T15:43:56.182Z,6.83
2019-02-20T15:47:00.307Z,8.40
2019-02-20T15:50:09.916Z,8.33
2019-02-20T15:53:14.065Z,8.43
2019-02-20T15:56:18.359Z,6.70
2019-02-20T15:59:22.499Z,4.53
2019-02-20T16:02:26.626Z,6.10
2019-02-20T16:05:30.773Z,6.67
2019-02-20T16:08:34.917Z,5.90
2019-02-20T16:11:39.220Z,7.07
2019-02-20T16:14:43.361Z,9.90
2019-02-20T16:17:47.490Z,6.60
2019-02-20T16:20:51.909Z,5.87
2019-02-20T16:23:56.081Z,5.37
2019-02-20T16:27:00.209Z,6.17
2019-02-20T16:30:06.675Z,5.43
2019-02-20T16:33:10.795Z,3.00
2019-02-20T16:36:14.942Z,4.07
2019-02-20T16:39:19.245Z,4.73
2019-02-20T16:42:23.389Z,9.33
2019-02-20T16:45:27.538Z,4.23
2019-02-20T16:48:32.005Z,4.73
2019-02-20T16:51:36.154Z,4.17
2019-02-20T16:54:40.300Z,3.50
2019-02-20T16:57:44.740Z,5.30
2019-02-20T17:00:50.171Z,3.50
2019-02-20T17:03:54.289Z,4.33
2019-02-20T17:06:58.509Z,3.50
2019-02-20T17:10:02.655Z,3.53
2019-02-20T17:13:08.643Z,4.67
2019-02-20T17:16:12.789Z,3.83
2019-02-20T17:19:16.911Z,5.37
2019-02-20T17:22:21.153Z,3.60
2019-02-20T17:25:25.477Z,4.13
2019-02-20T17:28:29.601Z,4.67
2019-02-20T17:31:33.744Z,3.27
2019-02-20T17:34:37.869Z,3.07
2019-02-20T17:37:42.017Z,4.20
2019-02-20T17:40:46.167Z,3.40
2019-02-20T17:43:50.288Z,5.03
2019-02-20T17:46:54.435Z,8.57
2019-02-20T17:49:58.557Z,4.53
2019-02-20T17:53:02.705Z,3.67
2019-02-20T17:56:06.856Z,4.93
2019-02-20T17:59:10.978Z,4.07
2019-02-20T18:02:15.127Z,4.90
2019-02-20T18:05:19.277Z,5.27
2019-02-20T18:08:23.397Z,4.30
2019-02-20T18:11:27.546Z,5.40
2019-02-20T18:14:31.670Z,3.60
2019-02-20T18:17:35.817Z,5.10
2019-02-20T18:20:39.978Z,4.03
2019-02-20T18:23:44.101Z,4.50
2019-02-20T18:26:48.249Z,2.90
2019-02-20T18:29:52.381Z,5.03
2019-02-20T18:32:56.521Z,3.17
2019-02-20T18:36:00.668Z,5.33
2019-02-20T18:39:05.850Z,3.50
2019-02-20T18:42:09.986Z,2.93
2019-02-20T18:45:15.234Z,3.80
2019-02-20T18:48:19.381Z,2.13
2019-02-20T18:51:23.533Z,3.60
2019-02-20T18:54:27.661Z,3.47
2019-02-20T18:57:31.812Z,3.30
2019-02-20T19:00:36.045Z,2.70
2019-02-20T19:03:40.148Z,4.13
2019-02-20T19:06:44.293Z,4.07
2019-02-20T19:09:48.444Z,2.27
2019-02-20T19:13:02.854Z,4.10
2019-02-20T19:16:16.177Z,3.03
2019-02-20T19:19:29.003Z,3.17
2019-02-20T19:22:51.388Z,4.00
2019-02-20T19:26:04.485Z,2.50
2019-02-20T19:29:31.505Z,1.93
2019-02-20T19:32:47.845Z,1.73
2019-02-20T19:36:19.083Z,3.87
2019-02-20T19:39:44.542Z,2.57
2019-02-20T19:43:00.760Z,2.73
2019-02-20T19:46:23.312Z,2.93
2019-02-20T19:49:53.457Z,2.07
2019-02-20T19:53:03.225Z,1.97
2019-02-20T19:56:28.967Z,3.30
2019-02-20T19:59:54.358Z,1.60
2019-02-20T20:03:07.360Z,3.03
2019-02-20T20:06:23.507Z,2.83
2019-02-20T20:09:42.871Z,2.03
2019-02-20T20:13:12.532Z,2.37
2019-02-20T20:16:41.217Z,2.57
2019-02-20T20:19:54.490Z,3.03
2019-02-20T20:23:25.503Z,2.60
2019-02-20T20:27:06.234Z,2.50
2019-02-20T20:30:48.699Z,2.23
2019-02-20T20:34:12.727Z,2.17
2019-02-20T20:37:20.032Z,2.43
2019-02-20T20:40:45.325Z,2.17
2019-02-20T20:44:12.453Z,2.43
2019-02-20T20:47:42.769Z,2.33
2019-02-20T20:50:58.759Z,2.50
2019-02-20T20:54:15.222Z,3.23
2019-02-20T20:57:31.161Z,2.03
2019-02-20T21:01:11.964Z,1.60
2019-02-20T21:04:33.891Z,1.80
2019-02-20T21:08:05.533Z,3.43
2019-02-20T21:11:33.665Z,1.20
2019-02-20T21:14:40.984Z,2.23
2019-02-20T21:18:00.514Z,1.30
2019-02-20T21:21:16.658Z,1.90
2019-02-20T21:24:33.012Z,1.23
2019-02-20T21:27:52.599Z,2.97
2019-02-20T21:31:34.544Z,1.17
2019-02-20T21:34:50.934Z,1.30
2019-02-20T21:38:16.502Z,1.90
2019-02-20T21:41:41.858Z,2.40
2019-02-20T21:45:25.521Z,1.43
2019-02-20T21:48:53.677Z,2.27
2019-02-20T21:52:00.986Z,1.90
2019-02-20T21:55:23.189Z,1.77
2019-02-20T21:58:50.218Z,1.13
2019-02-20T22:02:00.318Z,2.50
2019-02-20T22:05:25.256Z,2.10
2019-02-20T22:08:50.670Z,3.27
2019-02-20T22:12:28.603Z,1.53
2019-02-20T22:15:41.672Z,1.87
2019-02-20T22:18:55.004Z,1.57
2019-02-20T22:22:23.473Z,1.50
2019-02-20T22:25:33.489Z,1.43
2019-02-20T22:28:43.467Z,2.83
2019-02-20T22:32:07.027Z,1.60
2019-02-20T22:35:23.100Z,2.40
2019-02-20T22:38:39.541Z,1.90
2019-02-20T22:42:18.725Z,2.13
2019-02-20T22:45:50.317Z,1.37
2019-02-20T22:49:14.320Z,1.23
2019-02-20T22:52:24.594Z,2.83
2019-02-20T22:55:48.132Z,1.50
2019-02-20T22:59:17.047Z,1.80
2019-02-20T23:02:47.020Z,1.30
2019-02-20T23:06:26.117Z,1.97
2019-02-20T23:10:00.618Z,1.97
2019-02-20T23:13:07.918Z,1.57
2019-02-20T23:16:12.142Z,2.20
2019-02-20T23:19:16.264Z,2.17
2019-02-20T23:22:20.417Z,1.60
2019-02-20T23:25:24.566Z,1.40
2019-02-20T23:28:30.966Z,1.33
2019-02-20T23:31:34.523Z,1.73
2019-02-20T23:34:38.649Z,1.17
2019-02-20T23:37:42.795Z,1.40
2019-02-20T23:40:46.934Z,1.10
2019-02-20T23:43:51.066Z,1.40
2019-02-20T23:46:55.209Z,2.70
2019-02-20T23:49:59.333Z,1.60
2019-02-20T23:53:03.479Z,5.20
2019-02-20T23:56:07.620Z,1.27
2019-02-20T23:59:13.891Z,0.90
